createdAt,value
2018-11-14T00:02:34.448Z,4.53
2018-11-14T00:05:40.106Z,4.00
2018-11-14T00:08:45.581Z,4.90
2018-11-14T00:11:51.010Z,4.27
2018-11-14T00:14:57.441Z,4.80
2018-11-14T00:18:02.904Z,4.63
2018-11-14T00:21:08.400Z,4.60
2018-11-14T00:24:14.153Z,5.80
2018-11-14T00:27:19.570Z,4.93
2018-11-14T00:30:26.006Z,4.83
2018-11-14T00:33:31.451Z,4.80
2018-11-14T00:36:36.838Z,4.43
2018-11-14T00:39:42.316Z,5.10
2018-11-14T00:42:48.466Z,5.13
2018-11-14T00:45:53.935Z,5.10
2018-11-14T00:48:59.409Z,5.30
2018-11-14T00:52:05.502Z,4.70
2018-11-14T00:55:13.987Z,5.40
2018-11-14T00:58:19.353Z,5.03
2018-11-14T01:01:24.944Z,6.40
2018-11-14T01:04:30.838Z,5.03
2018-11-14T01:07:36.334Z,5.83
2018-11-14T01:10:41.745Z,5.63
2018-11-14T01:13:47.289Z,6.50
2018-11-14T01:16:52.715Z,5.03
2018-11-14T01:19:58.163Z,5.33
2018-11-14T01:23:03.712Z,5.43
2018-11-14T01:26:09.772Z,6.10
2018-11-14T01:29:15.138Z,5.70
2018-11-14T01:32:20.591Z,6.67
2018-11-14T01:35:26.172Z,6.80
2018-11-14T01:38:31.607Z,6.03
2018-11-14T01:41:37.158Z,6.27
2018-11-14T01:44:42.622Z,5.97
2018-11-14T01:47:48.049Z,6.47
2018-11-14T01:50:53.475Z,6.53
2018-11-14T01:53:58.966Z,6.53
2018-11-14T01:57:04.410Z,7.20
2018-11-14T02:00:13.044Z,7.23
2018-11-14T02:03:18.462Z,6.70
2018-11-14T02:06:24.174Z,6.47
2018-11-14T02:09:29.622Z,7.20
2018-11-14T02:12:35.411Z,7.53
2018-11-14T02:15:40.922Z,6.57
2018-11-14T02:18:46.305Z,6.73
2018-11-14T02:21:51.677Z,7.17
2018-11-14T02:24:57.218Z,7.10
2018-11-14T02:28:02.649Z,6.87
2018-11-14T02:31:08.398Z,7.70
2018-11-14T02:34:13.878Z,7.90
2018-11-14T02:37:19.482Z,7.77
2018-11-14T02:40:24.945Z,8.50
2018-11-14T02:43:30.458Z,8.43
2018-11-14T02:46:35.813Z,9.20
2018-11-14T02:49:41.228Z,8.90
2018-11-14T02:52:46.721Z,9.37
2018-11-14T02:56:06.210Z,9.10
2018-11-14T02:59:11.566Z,9.50
2018-11-14T03:02:17.095Z,10.30
2018-11-14T03:05:22.625Z,9.67
2018-11-14T03:08:28.110Z,10.23
2018-11-14T03:11:33.495Z,10.33
2018-11-14T03:14:38.924Z,9.57
2018-11-14T03:17:44.373Z,9.90
2018-11-14T03:20:49.819Z,10.70
2018-11-14T03:23:55.396Z,10.80
2018-11-14T03:27:00.826Z,11.17
2018-11-14T03:30:08.929Z,10.67
2018-11-14T03:33:14.631Z,11.37
2018-11-14T03:36:20.997Z,11.17
2018-11-14T03:39:26.673Z,10.43
2018-11-14T03:42:32.062Z,11.40
2018-11-14T03:45:37.526Z,11.33
2018-11-14T03:48:43.102Z,11.20
2018-11-14T03:51:48.554Z,11.50
2018-11-14T03:54:54.011Z,12.30
2018-11-14T03:57:59.438Z,11.90
2018-11-14T04:01:06.091Z,12.80
2018-11-14T04:04:11.625Z,12.07
2018-11-14T04:07:17.070Z,12.57
2018-11-14T04:10:22.545Z,12.83
2018-11-14T04:13:28.117Z,12.77
2018-11-14T04:16:33.613Z,13.67
2018-11-14T04:19:38.998Z,13.43
2018-11-14T04:22:44.670Z,14.23
2018-11-14T04:25:50.115Z,15.97
2018-11-14T04:28:55.619Z,13.80
2018-11-14T04:32:01.201Z,15.93
2018-11-14T04:35:09.418Z,16.77
2018-11-14T04:38:14.835Z,16.87
2018-11-14T04:41:20.260Z,19.03
2018-11-14T04:44:25.734Z,20.60
2018-11-14T04:47:31.304Z,19.63
2018-11-14T04:50:36.690Z,20.63
2018-11-14T04:53:42.118Z,21.87
2018-11-14T04:56:47.542Z,22.73
2018-11-14T04:59:53.350Z,22.13
2018-11-14T05:02:59.327Z,24.53
2018-11-14T05:06:05.405Z,22.07
2018-11-14T05:09:12.779Z,23.43
2018-11-14T05:12:18.214Z,25.13
2018-11-14T05:15:24.834Z,23.73
2018-11-14T05:18:31.977Z,25.10
2018-11-14T05:21:37.431Z,25.63
2018-11-14T05:24:42.914Z,26.03
2018-11-14T05:27:48.808Z,24.80
2018-11-14T05:30:54.186Z,24.10
2018-11-14T05:33:59.689Z,27.60
2018-11-14T05:37:05.133Z,26.63
2018-11-14T05:40:13.935Z,26.40
2018-11-14T05:43:19.601Z,26.53
2018-11-14T05:46:24.984Z,27.37
2018-11-14T05:49:30.419Z,27.93
2018-11-14T05:52:35.842Z,27.33
2018-11-14T05:55:41.290Z,28.57
2018-11-14T05:58:46.650Z,28.70
2018-11-14T06:01:52.130Z,27.37
2018-11-14T06:04:57.592Z,28.47
2018-11-14T06:08:03.011Z,28.17
2018-11-14T06:11:08.426Z,27.67
2018-11-14T06:14:13.926Z,28.37
2018-11-14T06:17:19.305Z,27.27
2018-11-14T06:20:24.763Z,27.23
2018-11-14T06:23:30.739Z,26.30
2018-11-14T06:26:36.277Z,26.30
2018-11-14T06:29:41.741Z,24.50
2018-11-14T06:32:47.482Z,26.67
2018-11-14T06:35:52.858Z,24.63
2018-11-14T06:38:58.329Z,24.70
2018-11-14T06:42:03.800Z,26.17
2018-11-14T06:45:13.162Z,25.37
2018-11-14T06:48:18.530Z,24.63
2018-11-14T06:51:23.954Z,24.63
2018-11-14T06:54:29.385Z,23.73
2018-11-14T06:57:34.849Z,24.83
2018-11-14T07:00:40.217Z,24.00
2018-11-14T07:03:45.702Z,23.70
2018-11-14T07:06:51.081Z,23.80
2018-11-14T07:09:56.490Z,23.90
2018-11-14T07:13:05.788Z,22.97
2018-11-14T07:16:11.206Z,25.77
2018-11-14T07:19:16.593Z,25.73
2018-11-14T07:22:21.982Z,28.70
2018-11-14T07:25:27.849Z,26.43
2018-11-14T07:28:33.320Z,27.80
2018-11-14T07:31:38.759Z,24.57
2018-11-14T07:34:44.214Z,26.73
2018-11-14T07:38:53.281Z,28.07
2018-11-14T07:41:58.721Z,25.67
2018-11-14T07:45:04.204Z,25.80
2018-11-14T07:48:11.903Z,25.03
2018-11-14T07:51:17.509Z,25.50
2018-11-14T07:54:23.100Z,24.97
2018-11-14T07:57:28.694Z,21.23
2018-11-14T08:00:34.159Z,24.20
2018-11-14T08:03:39.656Z,21.73
2018-11-14T08:06:45.104Z,24.30
2018-11-14T08:09:51.081Z,26.00
2018-11-14T08:12:56.771Z,25.33
2018-11-14T08:16:02.899Z,27.50
2018-11-14T08:19:08.461Z,29.23
2018-11-14T08:22:14.043Z,29.10
2018-11-14T08:25:19.783Z,27.20
2018-11-14T08:28:25.746Z,27.33
2018-11-14T08:31:31.211Z,28.37
2018-11-14T08:34:36.675Z,29.83
2018-11-14T08:37:42.365Z,27.37
2018-11-14T08:40:48.255Z,28.97
2018-11-14T08:43:53.869Z,29.57
2018-11-14T08:46:59.371Z,29.80
2018-11-14T08:50:06.431Z,28.33
2018-11-14T08:53:13.806Z,29.10
2018-11-14T08:56:19.289Z,29.47
2018-11-14T08:59:24.811Z,31.33
2018-11-14T09:02:30.249Z,28.33
2018-11-14T09:05:35.719Z,27.83
2018-11-14T09:08:41.362Z,28.37
2018-11-14T09:11:47.112Z,28.93
2018-11-14T09:14:52.773Z,29.10
2018-11-14T09:17:58.465Z,28.20
2018-11-14T09:21:04.047Z,28.70
2018-11-14T09:24:09.523Z,28.57
2018-11-14T09:27:15.135Z,28.83
2018-11-14T09:30:22.778Z,29.00
2018-11-14T09:33:28.268Z,26.70
2018-11-14T09:36:33.747Z,27.90
2018-11-14T09:39:39.222Z,27.27
2018-11-14T09:42:44.730Z,25.93
2018-11-14T09:45:50.123Z,26.93
2018-11-14T09:48:55.552Z,26.63
2018-11-14T09:52:00.962Z,25.77
2018-11-14T09:55:08.543Z,25.70
2018-11-14T09:58:13.999Z,25.20
2018-11-14T10:01:19.398Z,25.20
2018-11-14T10:04:24.859Z,22.93
2018-11-14T10:07:30.333Z,22.97
2018-11-14T10:10:35.746Z,20.27
2018-11-14T10:13:41.202Z,20.93
2018-11-14T10:16:46.649Z,20.63
2018-11-14T10:19:52.047Z,19.87
2018-11-14T10:22:57.518Z,20.13
2018-11-14T10:26:02.970Z,18.90
2018-11-14T10:29:08.543Z,19.90
2018-11-14T10:32:14.045Z,18.30
2018-11-14T10:35:19.604Z,19.17
2018-11-14T10:38:25.071Z,19.10
2018-11-14T10:41:30.466Z,19.07
2018-11-14T10:44:35.935Z,17.47
2018-11-14T10:47:41.443Z,16.87
2018-11-14T10:50:46.948Z,16.00
2018-11-14T10:53:52.589Z,17.00
2018-11-14T10:56:58.411Z,16.40
2018-11-14T11:00:04.164Z,18.07
2018-11-14T11:03:14.719Z,17.07
2018-11-14T11:06:34.031Z,21.53
2018-11-14T11:09:44.499Z,20.40
2018-11-14T11:14:55.839Z,19.30
2018-11-14T11:18:03.037Z,18.27
2018-11-14T11:21:08.408Z,17.77
2018-11-14T11:24:14.661Z,18.23
2018-11-14T11:27:20.058Z,16.63
2018-11-14T11:30:25.442Z,18.57
2018-11-14T11:33:30.843Z,17.20
2018-11-14T11:36:36.278Z,18.97
2018-11-14T11:39:41.650Z,19.03
2018-11-14T11:42:47.051Z,17.57
2018-11-14T11:45:52.430Z,17.20
2018-11-14T11:48:57.838Z,19.20
2018-11-14T11:52:03.546Z,19.07
2018-11-14T11:55:08.995Z,19.13
2018-11-14T11:58:14.363Z,19.77
2018-11-14T12:01:19.746Z,19.20
2018-11-14T12:04:25.154Z,20.33
2018-11-14T12:07:30.498Z,18.93
2018-11-14T12:10:35.924Z,19.17
2018-11-14T12:13:41.585Z,21.83
2018-11-14T12:16:47.142Z,19.40
2018-11-14T12:19:52.527Z,21.07
2018-11-14T12:22:58.140Z,21.40
2018-11-14T12:26:03.525Z,21.53
2018-11-14T12:29:08.882Z,21.33
2018-11-14T12:32:14.278Z,20.67
2018-11-14T12:35:19.739Z,20.97
2018-11-14T12:38:25.309Z,21.47
2018-11-14T12:41:30.713Z,21.43
2018-11-14T12:44:36.077Z,22.13
2018-11-14T12:47:41.591Z,20.80
2018-11-14T12:50:46.973Z,21.10
2018-11-14T12:53:52.341Z,21.37
2018-11-14T12:56:57.726Z,20.13
2018-11-14T13:00:03.269Z,22.87
2018-11-14T13:03:08.829Z,22.13
2018-11-14T13:06:14.214Z,21.00
2018-11-14T13:09:19.573Z,21.73
2018-11-14T13:12:24.965Z,21.87
2018-11-14T13:15:30.333Z,20.63
2018-11-14T13:18:35.722Z,22.03
2018-11-14T13:21:44.604Z,22.23
2018-11-14T13:24:49.962Z,22.80
2018-11-14T13:27:55.742Z,22.77
2018-11-14T13:31:01.302Z,21.67
2018-11-14T13:34:07.098Z,20.80
2018-11-14T13:37:12.520Z,21.50
2018-11-14T13:40:17.930Z,21.53
2018-11-14T13:43:24.229Z,24.85
2018-11-14T13:46:29.616Z,21.20
2018-11-14T13:49:35.186Z,22.13
2018-11-14T13:52:40.775Z,20.10
2018-11-14T13:55:46.141Z,21.83
2018-11-14T13:58:51.506Z,23.00
2018-11-14T14:01:56.926Z,20.47
2018-11-14T14:05:02.435Z,20.60
2018-11-14T14:08:07.936Z,22.40
2018-11-14T14:11:13.470Z,20.87
2018-11-14T14:14:19.488Z,22.50
2018-11-14T14:17:24.942Z,21.57
2018-11-14T14:20:32.317Z,19.77
2018-11-14T14:23:42.626Z,20.80
2018-11-14T14:26:50.192Z,20.30
2018-11-14T14:29:55.597Z,20.27
2018-11-14T14:33:01.130Z,20.60
2018-11-14T14:36:07.442Z,18.70
2018-11-14T14:39:13.566Z,18.57
2018-11-14T14:42:18.963Z,17.80
2018-11-14T14:45:25.950Z,18.40
2018-11-14T14:48:31.434Z,18.97
2018-11-14T14:51:37.002Z,19.30
2018-11-14T14:54:42.427Z,18.93
2018-11-14T14:57:48.145Z,17.83
2018-11-14T15:00:53.995Z,17.83
2018-11-14T15:03:59.499Z,17.50
2018-11-14T15:07:05.934Z,16.17
2018-11-14T15:10:15.210Z,17.73
2018-11-14T15:13:20.585Z,16.57
2018-11-14T15:16:25.982Z,15.73
2018-11-14T15:19:31.346Z,15.17
2018-11-14T15:22:37.139Z,16.43
2018-11-14T15:25:42.678Z,15.73
2018-11-14T15:28:48.064Z,13.90
2018-11-14T15:31:53.651Z,14.50
2018-11-14T15:34:59.428Z,14.27
2018-11-14T15:38:05.448Z,14.10
2018-11-14T15:41:10.846Z,13.80
2018-11-14T15:44:16.604Z,12.23
2018-11-14T15:47:21.959Z,12.63
2018-11-14T15:50:28.949Z,12.13
2018-11-14T15:53:34.666Z,12.70
2018-11-14T15:56:40.044Z,10.80
2018-11-14T15:59:45.410Z,10.77
2018-11-14T16:02:50.842Z,10.80
2018-11-14T16:05:56.454Z,10.97
2018-11-14T16:09:01.841Z,12.43
2018-11-14T16:12:07.606Z,11.03
2018-11-14T16:15:14.151Z,11.13
2018-11-14T16:18:19.514Z,11.70
2018-11-14T16:21:24.918Z,11.90
2018-11-14T16:24:30.338Z,10.93
2018-11-14T16:27:35.918Z,10.73
2018-11-14T16:30:41.284Z,9.93
2018-11-14T16:33:46.678Z,10.43
2018-11-14T16:36:52.054Z,11.10
2018-11-14T16:39:57.445Z,10.63
2018-11-14T16:43:04.324Z,10.37
2018-11-14T16:46:09.738Z,9.43
2018-11-14T16:49:15.314Z,10.47
2018-11-14T16:52:20.709Z,9.70
2018-11-14T16:55:26.204Z,10.53
2018-11-14T16:58:31.797Z,10.70
2018-11-14T17:01:37.222Z,9.63
2018-11-14T17:04:42.657Z,10.33
2018-11-14T17:07:48.162Z,10.90
2018-11-14T17:10:53.598Z,9.63
2018-11-14T17:13:58.994Z,9.70
2018-11-14T17:17:04.438Z,9.73
2018-11-14T17:20:10.816Z,9.70
2018-11-14T17:23:16.258Z,9.07
2018-11-14T17:26:21.736Z,8.37
2018-11-14T17:29:27.253Z,8.83
2018-11-14T17:32:32.650Z,8.40
2018-11-14T17:35:38.046Z,9.37
2018-11-14T17:38:43.447Z,9.70
2018-11-14T17:41:48.946Z,9.27
2018-11-14T17:44:54.441Z,8.80
2018-11-14T17:48:00.147Z,8.53
2018-11-14T17:51:05.771Z,8.27
2018-11-14T17:54:11.191Z,9.03
2018-11-14T17:57:16.602Z,8.00
2018-11-14T18:00:23.417Z,8.40
2018-11-14T18:03:28.863Z,7.93
2018-11-14T18:06:34.243Z,8.17
2018-11-14T18:09:39.831Z,8.33
2018-11-14T18:12:46.477Z,7.67
2018-11-14T18:15:51.842Z,8.07
2018-11-14T18:18:57.201Z,8.07
2018-11-14T18:22:02.627Z,8.00
2018-11-14T18:25:08.399Z,7.63
2018-11-14T18:28:13.774Z,7.47
2018-11-14T18:31:19.245Z,7.23
2018-11-14T18:34:24.614Z,7.33
2018-11-14T18:37:30.051Z,8.10
2018-11-14T18:40:35.873Z,7.77
2018-11-14T18:43:41.272Z,8.20
2018-11-14T18:46:46.670Z,9.57
2018-11-14T18:49:52.102Z,9.07
2018-11-14T18:52:57.542Z,8.60
2018-11-14T18:56:02.895Z,8.13
2018-11-14T18:59:08.390Z,8.00
2018-11-14T19:02:13.807Z,7.90
2018-11-14T19:05:19.734Z,8.10
2018-11-14T19:08:25.144Z,7.63
2018-11-14T19:11:30.545Z,7.90
2018-11-14T19:14:35.945Z,8.33
2018-11-14T19:17:41.841Z,7.07
2018-11-14T19:20:47.226Z,7.30
2018-11-14T19:23:52.658Z,6.97
2018-11-14T19:26:58.069Z,7.20
2018-11-14T19:30:04.006Z,7.77
2018-11-14T19:33:09.520Z,7.43
2018-11-14T19:36:15.220Z,7.60
2018-11-14T19:39:20.845Z,7.70
2018-11-14T19:42:28.199Z,7.27
2018-11-14T19:45:38.391Z,6.97
2018-11-14T19:48:47.909Z,6.83
2018-11-14T19:51:56.574Z,7.43
2018-11-14T19:55:02.239Z,6.60
2018-11-14T19:58:09.421Z,6.03
2018-11-14T20:01:27.167Z,7.53
2018-11-14T20:04:32.889Z,6.57
2018-11-14T20:07:39.062Z,6.80
2018-11-14T20:10:44.564Z,6.43
2018-11-14T20:13:53.335Z,6.13
2018-11-14T20:17:00.937Z,5.70
2018-11-14T20:20:09.316Z,7.20
2018-11-14T20:23:15.003Z,5.70
2018-11-14T20:26:20.813Z,6.80
2018-11-14T20:29:26.693Z,6.00
2018-11-14T20:32:32.090Z,6.10
2018-11-14T20:35:37.906Z,6.47
2018-11-14T20:38:43.463Z,6.30
2018-11-14T20:41:49.085Z,7.13
2018-11-14T20:44:54.815Z,6.97
2018-11-14T20:48:00.498Z,7.43
2018-11-14T20:51:07.250Z,7.27
2018-11-14T20:54:12.842Z,6.43
2018-11-14T20:57:20.346Z,6.47
2018-11-14T21:00:29.909Z,7.63
2018-11-14T21:03:35.823Z,6.90
2018-11-14T21:06:41.351Z,7.23
2018-11-14T21:09:46.982Z,6.63
2018-11-14T21:12:53.444Z,6.87
2018-11-14T21:15:58.938Z,6.67
2018-11-14T21:19:04.629Z,6.93
2018-11-14T21:22:13.889Z,6.53
2018-11-14T21:25:20.422Z,6.80
2018-11-14T21:28:26.181Z,7.57
2018-11-14T21:31:33.463Z,6.53
2018-11-14T21:34:52.258Z,6.53
2018-11-14T21:38:00.139Z,6.63
2018-11-14T21:41:05.651Z,7.20
2018-11-14T21:44:11.423Z,6.90
2018-11-14T21:47:17.062Z,7.43
2018-11-14T21:50:23.721Z,6.57
2018-11-14T21:53:29.394Z,6.57
2018-11-14T21:56:34.953Z,7.70
2018-11-14T21:59:40.470Z,7.20
2018-11-14T22:02:48.706Z,7.17
2018-11-14T22:05:54.404Z,6.53
2018-11-14T22:08:59.927Z,6.33
2018-11-14T22:12:05.535Z,6.47
2018-11-14T22:15:11.959Z,6.27
2018-11-14T22:18:17.573Z,5.80
2018-11-14T22:21:23.047Z,6.57
2018-11-14T22:24:28.850Z,6.77
2018-11-14T22:27:34.997Z,6.57
2018-11-14T22:30:40.703Z,6.77
2018-11-14T22:33:46.268Z,6.27
2018-11-14T22:36:52.300Z,6.23
2018-11-14T22:39:58.019Z,6.03
2018-11-14T22:43:06.791Z,6.40
2018-11-14T22:46:12.463Z,6.00
2018-11-14T22:49:18.121Z,5.73
2018-11-14T22:52:23.768Z,6.10
2018-11-14T22:55:29.618Z,5.60
2018-11-14T22:58:36.191Z,5.40
2018-11-14T23:01:42.092Z,6.47
2018-11-14T23:04:47.886Z,5.57
2018-11-14T23:07:54.409Z,5.30
2018-11-14T23:11:00.108Z,5.93
2018-11-14T23:14:06.326Z,5.83
2018-11-14T23:17:11.764Z,5.77
2018-11-14T23:20:17.793Z,6.17
2018-11-14T23:23:23.538Z,6.53
2018-11-14T23:26:29.846Z,6.00
2018-11-14T23:29:35.900Z,6.43
2018-11-14T23:32:42.957Z,6.30
2018-11-14T23:35:48.628Z,5.53
2018-11-14T23:38:54.466Z,6.63
2018-11-14T23:42:00.084Z,5.60
2018-11-14T23:45:07.583Z,5.73
2018-11-14T23:48:13.055Z,5.80
2018-11-14T23:51:18.567Z,5.80
2018-11-14T23:54:24.378Z,5.90
2018-11-14T23:57:29.900Z,5.13
